createdAt,value
2022-09-27T00:00:34.000Z,987.4
2022-09-27T00:01:50.000Z,987.4
2022-09-27T00:04:23.000Z,987.4
2022-09-27T00:05:39.000Z,987.4
2022-09-27T00:06:55.000Z,987.4
2022-09-27T00:08:12.000Z,987.4
2022-09-27T00:09:28.000Z,987.4
2022-09-27T00:10:44.000Z,987.4
2022-09-27T00:12:01.000Z,987.4
2022-09-27T00:13:16.000Z,987.4
2022-09-27T00:14:32.000Z,987.4
2022-09-27T00:15:48.000Z,987.4
2022-09-27T00:17:05.000Z,987.4
2022-09-27T00:18:21.000Z,987.4
2022-09-27T00:19:37.000Z,987.4
2022-09-27T00:20:54.000Z,987.5
2022-09-27T00:22:10.000Z,987.5
2022-09-27T00:23:25.000Z,987.5
2022-09-27T00:24:40.000Z,987.5
2022-09-27T00:25:57.000Z,987.5
2022-09-27T00:27:13.000Z,987.5
2022-09-27T00:29:46.000Z,987.5
2022-09-27T00:31:02.000Z,987.5
2022-09-27T00:32:18.000Z,987.5
2022-09-27T00:33:34.000Z,987.5
2022-09-27T00:34:51.000Z,987.5
2022-09-27T00:36:07.000Z,987.5
2022-09-27T00:37:23.000Z,987.5
2022-09-27T00:38:40.000Z,987.5
2022-09-27T00:39:56.000Z,987.5
2022-09-27T00:42:27.000Z,987.5
2022-09-27T00:43:43.000Z,987.6
2022-09-27T00:44:58.000Z,987.6
2022-09-27T00:46:14.000Z,987.5
2022-09-27T00:47:31.000Z,987.6
2022-09-27T00:48:47.000Z,987.6
2022-09-27T00:50:03.000Z,987.6
2022-09-27T00:52:36.000Z,987.6
2022-09-27T00:53:52.000Z,987.6
2022-09-27T00:55:08.000Z,987.6
2022-09-27T00:56:25.000Z,987.6
2022-09-27T00:57:41.000Z,987.6
2022-09-27T00:58:57.000Z,987.6
2022-09-27T01:00:14.000Z,987.5
2022-09-27T01:01:29.000Z,987.6
2022-09-27T01:02:45.000Z,987.6
2022-09-27T01:04:01.000Z,987.6
2022-09-27T01:05:18.000Z,987.6
2022-09-27T01:07:50.000Z,987.6
2022-09-27T01:09:07.000Z,987.6
2022-09-27T01:10:23.000Z,987.6
2022-09-27T01:11:38.000Z,987.7
2022-09-27T01:12:54.000Z,987.7
2022-09-27T01:14:11.000Z,987.7
2022-09-27T01:15:27.000Z,987.7
2022-09-27T01:16:43.000Z,987.7
2022-09-27T01:18:00.000Z,987.7
2022-09-27T01:21:48.000Z,987.7
2022-09-27T01:23:03.000Z,987.8
2022-09-27T01:24:19.000Z,987.8
2022-09-27T01:25:35.000Z,987.8
2022-09-27T01:26:52.000Z,987.8
2022-09-27T01:28:08.000Z,987.8
2022-09-27T01:29:24.000Z,987.8
2022-09-27T01:30:41.000Z,987.8
2022-09-27T01:31:57.000Z,987.8
2022-09-27T01:33:13.000Z,987.8
2022-09-27T01:34:29.000Z,987.8
2022-09-27T01:35:46.000Z,987.8
2022-09-27T01:37:02.000Z,987.8
2022-09-27T01:38:18.000Z,987.8
2022-09-27T01:39:34.000Z,987.8
2022-09-27T01:40:50.000Z,987.8
2022-09-27T01:42:06.000Z,987.8
2022-09-27T01:43:22.000Z,987.9
2022-09-27T01:44:39.000Z,987.8
2022-09-27T01:47:11.000Z,987.8
2022-09-27T01:48:28.000Z,987.9
2022-09-27T01:49:43.000Z,987.9
2022-09-27T01:50:59.000Z,987.9
2022-09-27T01:52:14.000Z,987.9
2022-09-27T01:53:31.000Z,987.9
2022-09-27T01:54:47.000Z,987.9
2022-09-27T01:56:03.000Z,987.9
2022-09-27T01:58:36.000Z,987.9
2022-09-27T01:59:52.000Z,987.9
2022-09-27T02:01:08.000Z,987.9
2022-09-27T02:02:25.000Z,987.9
2022-09-27T02:03:41.000Z,987.9
2022-09-27T02:04:57.000Z,987.9
2022-09-27T02:06:14.000Z,988
2022-09-27T02:07:30.000Z,987.9
2022-09-27T02:08:46.000Z,987.9
2022-09-27T02:11:18.000Z,987.9
2022-09-27T02:12:33.000Z,987.9
2022-09-27T02:13:48.000Z,987.9
2022-09-27T02:16:21.000Z,987.9
2022-09-27T02:17:37.000Z,988
2022-09-27T02:18:54.000Z,988
2022-09-27T02:20:10.000Z,988
2022-09-27T02:21:26.000Z,988
2022-09-27T02:23:59.000Z,988
2022-09-27T02:25:15.000Z,988
2022-09-27T02:26:31.000Z,988
2022-09-27T02:27:48.000Z,988
2022-09-27T02:29:04.000Z,988
2022-09-27T02:30:20.000Z,987.9
2022-09-27T02:31:35.000Z,988
2022-09-27T02:32:52.000Z,988
2022-09-27T02:34:08.000Z,988
2022-09-27T02:36:41.000Z,988
2022-09-27T02:37:57.000Z,988
2022-09-27T02:39:13.000Z,988
2022-09-27T02:40:29.000Z,988
2022-09-27T02:41:46.000Z,988
2022-09-27T02:43:02.000Z,988
2022-09-27T02:44:18.000Z,988
2022-09-27T02:45:35.000Z,988
2022-09-27T02:46:51.000Z,988.1
2022-09-27T02:48:07.000Z,988
2022-09-27T02:49:22.000Z,988
2022-09-27T02:50:38.000Z,988.1
2022-09-27T02:51:54.000Z,988.1
2022-09-27T02:53:09.000Z,988.1
2022-09-27T02:54:26.000Z,988.1
2022-09-27T02:55:42.000Z,988.1
2022-09-27T02:56:58.000Z,988
2022-09-27T02:58:15.000Z,988
2022-09-27T02:59:31.000Z,988.1
2022-09-27T03:02:03.000Z,988.1
2022-09-27T03:03:20.000Z,988.1
2022-09-27T03:04:36.000Z,988.1
2022-09-27T03:05:52.000Z,988
2022-09-27T03:07:09.000Z,988
2022-09-27T03:08:25.000Z,988
2022-09-27T03:09:40.000Z,988
2022-09-27T03:10:56.000Z,988.1
2022-09-27T03:12:13.000Z,988
2022-09-27T03:16:02.000Z,988
2022-09-27T03:17:17.000Z,988.1
2022-09-27T03:18:32.000Z,988
2022-09-27T03:21:05.000Z,988.1
2022-09-27T03:22:21.000Z,988.2
2022-09-27T03:23:37.000Z,988.1
2022-09-27T03:24:54.000Z,988.1
2022-09-27T03:26:10.000Z,988.2
2022-09-27T03:27:26.000Z,988.2
2022-09-27T03:28:42.000Z,988.2
2022-09-27T03:29:59.000Z,988.2
2022-09-27T03:31:15.000Z,988.2
2022-09-27T03:32:31.000Z,988.2
2022-09-27T03:33:48.000Z,988.2
2022-09-27T03:35:03.000Z,988.2
2022-09-27T03:36:19.000Z,988.2
2022-09-27T03:37:36.000Z,988.2
2022-09-27T03:40:08.000Z,988.3
2022-09-27T03:41:24.000Z,988.2
2022-09-27T03:42:41.000Z,988.3
2022-09-27T03:43:57.000Z,988.2
2022-09-27T03:45:13.000Z,988.3
2022-09-27T03:46:30.000Z,988.3
2022-09-27T03:49:01.000Z,988.2
2022-09-27T03:50:16.000Z,988.3
2022-09-27T03:52:49.000Z,988.3
2022-09-27T03:54:05.000Z,988.3
2022-09-27T03:55:22.000Z,988.3
2022-09-27T03:56:38.000Z,988.3
2022-09-27T03:59:10.000Z,988.3
2022-09-27T04:00:27.000Z,988.3
2022-09-27T04:01:43.000Z,988.3
2022-09-27T04:04:16.000Z,988.3
2022-09-27T04:06:48.000Z,988.4
2022-09-27T04:08:03.000Z,988.4
2022-09-27T04:09:20.000Z,988.4
2022-09-27T04:10:36.000Z,988.3
2022-09-27T04:11:52.000Z,988.4
2022-09-27T04:13:09.000Z,988.4
2022-09-27T04:14:25.000Z,988.4
2022-09-27T04:15:41.000Z,988.4
2022-09-27T04:16:57.000Z,988.4
2022-09-27T04:18:14.000Z,988.4
2022-09-27T04:19:30.000Z,988.4
2022-09-27T04:20:46.000Z,988.4
2022-09-27T04:22:03.000Z,988.4
2022-09-27T04:23:19.000Z,988.4
2022-09-27T04:24:34.000Z,988.4
2022-09-27T04:25:51.000Z,988.5
2022-09-27T04:27:07.000Z,988.5
2022-09-27T04:28:23.000Z,988.5
2022-09-27T04:30:56.000Z,988.5
2022-09-27T04:33:28.000Z,988.6
2022-09-27T04:34:45.000Z,988.6
2022-09-27T04:37:17.000Z,988.6
2022-09-27T04:38:33.000Z,988.6
2022-09-27T04:41:06.000Z,988.6
2022-09-27T04:43:38.000Z,988.6
2022-09-27T04:44:54.000Z,988.6
2022-09-27T04:46:10.000Z,988.6
2022-09-27T04:47:26.000Z,988.6
2022-09-27T04:48:43.000Z,988.7
2022-09-27T04:49:59.000Z,988.7
2022-09-27T04:51:15.000Z,988.6
2022-09-27T04:52:32.000Z,988.6
2022-09-27T04:53:48.000Z,988.7
2022-09-27T04:55:04.000Z,988.7
2022-09-27T04:56:20.000Z,988.7
2022-09-27T04:57:37.000Z,988.7
2022-09-27T04:58:52.000Z,988.7
2022-09-27T05:00:08.000Z,988.7
2022-09-27T05:01:24.000Z,988.8
2022-09-27T05:02:41.000Z,988.8
2022-09-27T05:03:57.000Z,988.8
2022-09-27T05:05:13.000Z,988.8
2022-09-27T05:06:29.000Z,988.8
2022-09-27T05:07:44.000Z,988.8
2022-09-27T05:09:01.000Z,988.9
2022-09-27T05:10:16.000Z,988.8
2022-09-27T05:11:32.000Z,988.9
2022-09-27T05:12:48.000Z,988.9
2022-09-27T05:14:05.000Z,988.9
2022-09-27T05:15:21.000Z,988.9
2022-09-27T05:16:37.000Z,988.9
2022-09-27T05:17:53.000Z,989
2022-09-27T05:19:10.000Z,989
2022-09-27T05:20:26.000Z,989
2022-09-27T05:21:41.000Z,988.9
2022-09-27T05:22:56.000Z,989
2022-09-27T05:24:13.000Z,989
2022-09-27T05:25:29.000Z,989
2022-09-27T05:26:44.000Z,989
2022-09-27T05:28:00.000Z,989
2022-09-27T05:29:17.000Z,989
2022-09-27T05:30:33.000Z,989
2022-09-27T05:31:49.000Z,989
2022-09-27T05:33:05.000Z,989
2022-09-27T05:34:21.000Z,989
2022-09-27T05:35:38.000Z,989.1
2022-09-27T05:36:54.000Z,989.1
2022-09-27T05:38:10.000Z,989.1
2022-09-27T05:39:26.000Z,989.1
2022-09-27T05:40:43.000Z,989.1
2022-09-27T05:43:15.000Z,989.1
2022-09-27T05:44:30.000Z,989.1
2022-09-27T05:47:03.000Z,989.1
2022-09-27T05:48:18.000Z,989.2
2022-09-27T05:49:33.000Z,989.2
2022-09-27T05:50:50.000Z,989.2
2022-09-27T05:52:06.000Z,989.3
2022-09-27T05:53:22.000Z,989.2
2022-09-27T05:54:38.000Z,989.2
2022-09-27T05:55:54.000Z,989.2
2022-09-27T05:59:43.000Z,989.2
2022-09-27T06:00:59.000Z,989.2
2022-09-27T06:02:16.000Z,989.2
2022-09-27T06:03:32.000Z,989.2
2022-09-27T06:06:05.000Z,989.3
2022-09-27T06:07:20.000Z,989.2
2022-09-27T06:08:35.000Z,989.2
2022-09-27T06:09:51.000Z,989.3
2022-09-27T06:11:07.000Z,989.3
2022-09-27T06:12:24.000Z,989.3
2022-09-27T06:13:40.000Z,989.3
2022-09-27T06:14:56.000Z,989.3
2022-09-27T06:16:12.000Z,989.3
2022-09-27T06:18:45.000Z,989.3
2022-09-27T06:20:01.000Z,989.3
2022-09-27T06:21:17.000Z,989.3
2022-09-27T06:22:34.000Z,989.3
2022-09-27T06:23:50.000Z,989.3
2022-09-27T06:25:05.000Z,989.3
2022-09-27T06:26:21.000Z,989.3
2022-09-27T06:28:54.000Z,989.4
2022-09-27T06:30:10.000Z,989.4
2022-09-27T06:31:26.000Z,989.3
2022-09-27T06:32:42.000Z,989.3
2022-09-27T06:33:59.000Z,989.3
2022-09-27T06:37:47.000Z,989.4
2022-09-27T06:39:04.000Z,989.3
2022-09-27T06:41:36.000Z,989.4
2022-09-27T06:42:51.000Z,989.4
2022-09-27T06:44:08.000Z,989.4
2022-09-27T06:45:24.000Z,989.5
2022-09-27T06:46:40.000Z,989.5
2022-09-27T06:47:56.000Z,989.5
2022-09-27T06:50:29.000Z,989.6
2022-09-27T06:53:01.000Z,989.6
2022-09-27T06:54:17.000Z,989.6
2022-09-27T06:55:34.000Z,989.7
2022-09-27T06:56:50.000Z,989.7
2022-09-27T06:59:22.000Z,989.7
2022-09-27T07:00:38.000Z,989.7
2022-09-27T07:01:54.000Z,989.7
2022-09-27T07:03:10.000Z,989.7
2022-09-27T07:04:26.000Z,989.7
2022-09-27T07:05:43.000Z,989.7
2022-09-27T07:06:59.000Z,989.7
2022-09-27T07:08:15.000Z,989.7
2022-09-27T07:09:31.000Z,989.7
2022-09-27T07:10:47.000Z,989.7
2022-09-27T07:12:04.000Z,989.7
2022-09-27T07:13:20.000Z,989.7
2022-09-27T07:15:52.000Z,989.7
2022-09-27T07:17:08.000Z,989.8
2022-09-27T07:19:40.000Z,989.7
2022-09-27T07:20:56.000Z,989.7
2022-09-27T07:22:13.000Z,989.8
2022-09-27T07:23:29.000Z,989.9
2022-09-27T07:24:45.000Z,989.8
2022-09-27T07:26:01.000Z,989.8
2022-09-27T07:27:18.000Z,989.9
2022-09-27T07:28:34.000Z,989.9
2022-09-27T07:29:50.000Z,990
2022-09-27T07:31:06.000Z,989.9
2022-09-27T07:32:22.000Z,989.9
2022-09-27T07:33:38.000Z,989.9
2022-09-27T07:34:54.000Z,989.9
2022-09-27T07:36:10.000Z,989.9
2022-09-27T07:38:43.000Z,989.9
2022-09-27T07:39:59.000Z,989.9
2022-09-27T07:41:15.000Z,990
2022-09-27T07:42:31.000Z,990
2022-09-27T07:45:04.000Z,990
2022-09-27T07:46:20.000Z,990
2022-09-27T07:47:36.000Z,990
2022-09-27T07:48:53.000Z,990
2022-09-27T07:50:08.000Z,990.1
2022-09-27T07:51:24.000Z,990
2022-09-27T07:52:40.000Z,990.1
2022-09-27T07:53:56.000Z,990.1
2022-09-27T07:55:13.000Z,990.1
2022-09-27T07:56:29.000Z,990.1
2022-09-27T07:57:45.000Z,990.1
2022-09-27T07:59:01.000Z,990.1
2022-09-27T08:00:18.000Z,990.1
2022-09-27T08:01:34.000Z,990.1
2022-09-27T08:02:50.000Z,990.2
2022-09-27T08:04:06.000Z,990.1
2022-09-27T08:05:22.000Z,990.1
2022-09-27T08:07:53.000Z,990.1
2022-09-27T08:10:26.000Z,990.2
2022-09-27T08:11:42.000Z,990.2
2022-09-27T08:12:58.000Z,990.1
2022-09-27T08:14:14.000Z,990.2
2022-09-27T08:15:30.000Z,990.2
2022-09-27T08:16:47.000Z,990.2
2022-09-27T08:18:03.000Z,990.1
2022-09-27T08:20:35.000Z,990.1
2022-09-27T08:21:52.000Z,990.2
2022-09-27T08:23:07.000Z,990.1
2022-09-27T08:24:22.000Z,990
2022-09-27T08:25:38.000Z,990.1
2022-09-27T08:26:55.000Z,990.1
2022-09-27T08:28:11.000Z,990.1
2022-09-27T08:29:27.000Z,990.1
2022-09-27T08:30:43.000Z,990.2
2022-09-27T08:32:00.000Z,990
2022-09-27T08:33:16.000Z,990.2
2022-09-27T08:34:32.000Z,990.1
2022-09-27T08:35:48.000Z,990.1
2022-09-27T08:37:04.000Z,990.1
2022-09-27T08:38:19.000Z,990.1
2022-09-27T08:39:35.000Z,990.2
2022-09-27T08:40:51.000Z,990.1
2022-09-27T08:42:07.000Z,990.2
2022-09-27T08:45:56.000Z,990.2
2022-09-27T08:47:12.000Z,990.2
2022-09-27T08:48:29.000Z,990.2
2022-09-27T08:49:45.000Z,990.2
2022-09-27T08:51:01.000Z,990.1
2022-09-27T08:52:17.000Z,990.1
2022-09-27T08:53:33.000Z,990.1
2022-09-27T08:54:49.000Z,990.1
2022-09-27T08:57:20.000Z,990.2
2022-09-27T08:58:37.000Z,990.2
2022-09-27T08:59:53.000Z,990.2
2022-09-27T09:01:09.000Z,990.3
2022-09-27T09:02:25.000Z,990.2
2022-09-27T09:03:41.000Z,990.3
2022-09-27T09:04:58.000Z,990.3
2022-09-27T09:06:14.000Z,990.2
2022-09-27T09:07:30.000Z,990.3
2022-09-27T09:10:03.000Z,990.3
2022-09-27T09:11:19.000Z,990.2
2022-09-27T09:12:34.000Z,990.3
2022-09-27T09:13:50.000Z,990.4
2022-09-27T09:15:07.000Z,990.4
2022-09-27T09:16:23.000Z,990.4
2022-09-27T09:17:39.000Z,990.4
2022-09-27T09:18:55.000Z,990.4
2022-09-27T09:20:12.000Z,990.4
2022-09-27T09:24:00.000Z,990.4
2022-09-27T09:25:16.000Z,990.4
2022-09-27T09:26:33.000Z,990.4
2022-09-27T09:27:49.000Z,990.4
2022-09-27T09:29:05.000Z,990.5
2022-09-27T09:30:20.000Z,990.3
2022-09-27T09:31:37.000Z,990.2
2022-09-27T09:32:53.000Z,990.2
2022-09-27T09:34:09.000Z,990.2
2022-09-27T09:35:25.000Z,990.2
2022-09-27T09:36:42.000Z,990.3
2022-09-27T09:37:58.000Z,990.2
2022-09-27T09:39:14.000Z,990.1
2022-09-27T09:40:30.000Z,990.2
2022-09-27T09:41:46.000Z,990.2
2022-09-27T09:43:02.000Z,990.2
2022-09-27T09:44:18.000Z,990.3
2022-09-27T09:45:34.000Z,990.2
2022-09-27T09:46:50.000Z,990.2
2022-09-27T09:48:07.000Z,990.3
2022-09-27T09:51:54.000Z,990.1
2022-09-27T09:53:10.000Z,990.1
2022-09-27T09:54:26.000Z,990.1
2022-09-27T09:55:42.000Z,990.1
2022-09-27T09:56:58.000Z,990.1
2022-09-27T09:58:15.000Z,990.2
2022-09-27T10:00:47.000Z,990.2
2022-09-27T10:02:03.000Z,990.2
2022-09-27T10:03:20.000Z,990.3
2022-09-27T10:04:36.000Z,990.2
2022-09-27T10:05:52.000Z,990.3
2022-09-27T10:07:08.000Z,990.2
2022-09-27T10:08:24.000Z,990.1
2022-09-27T10:09:40.000Z,990.1
2022-09-27T10:10:56.000Z,990.1
2022-09-27T10:13:28.000Z,990.1
2022-09-27T10:14:45.000Z,990.1
2022-09-27T10:16:01.000Z,990.1
2022-09-27T10:17:17.000Z,990
2022-09-27T10:18:33.000Z,990.1
2022-09-27T10:19:50.000Z,990
2022-09-27T10:22:22.000Z,990
2022-09-27T10:23:38.000Z,990.1
2022-09-27T10:26:11.000Z,989.9
2022-09-27T10:27:26.000Z,989.9
2022-09-27T10:28:42.000Z,990
2022-09-27T10:29:58.000Z,990
2022-09-27T10:31:15.000Z,989.9
2022-09-27T10:32:31.000Z,989.9
2022-09-27T10:33:47.000Z,989.9
2022-09-27T10:35:03.000Z,989.9
2022-09-27T10:37:36.000Z,990
2022-09-27T10:38:52.000Z,990.1
2022-09-27T10:40:08.000Z,990.1
2022-09-27T10:41:25.000Z,990
2022-09-27T10:42:41.000Z,990.1
2022-09-27T10:43:56.000Z,990.1
2022-09-27T10:45:12.000Z,990.1
2022-09-27T10:46:28.000Z,990.1
2022-09-27T10:47:45.000Z,990.1
2022-09-27T10:49:01.000Z,990.2
2022-09-27T10:50:17.000Z,990
2022-09-27T10:51:33.000Z,990
2022-09-27T10:52:49.000Z,990
2022-09-27T10:54:04.000Z,990
2022-09-27T10:55:20.000Z,990
2022-09-27T10:56:36.000Z,990
2022-09-27T10:57:53.000Z,990
2022-09-27T10:59:09.000Z,990
2022-09-27T11:00:25.000Z,990
2022-09-27T11:01:41.000Z,990
2022-09-27T11:02:58.000Z,990.1
2022-09-27T11:04:14.000Z,989.9
2022-09-27T11:05:30.000Z,990
2022-09-27T11:08:02.000Z,990
2022-09-27T11:09:17.000Z,989.9
2022-09-27T11:10:33.000Z,990
2022-09-27T11:11:49.000Z,990
2022-09-27T11:13:05.000Z,990
2022-09-27T11:14:22.000Z,990.1
2022-09-27T11:16:54.000Z,990.1
2022-09-27T11:18:09.000Z,990.1
2022-09-27T11:19:25.000Z,990.1
2022-09-27T11:20:41.000Z,990
2022-09-27T11:21:57.000Z,990.1
2022-09-27T11:23:13.000Z,990.1
2022-09-27T11:24:30.000Z,990.2
2022-09-27T11:25:46.000Z,990.2
2022-09-27T11:27:02.000Z,990.2
2022-09-27T11:29:35.000Z,990.2
2022-09-27T11:30:51.000Z,990.2
2022-09-27T11:32:07.000Z,990.2
2022-09-27T11:33:23.000Z,990.2
2022-09-27T11:34:39.000Z,990.2
2022-09-27T11:35:55.000Z,990.2
2022-09-27T11:38:27.000Z,990.2
2022-09-27T11:41:00.000Z,990.2
2022-09-27T11:42:16.000Z,990.2
2022-09-27T11:43:32.000Z,990.3
2022-09-27T11:46:05.000Z,990.1
2022-09-27T11:47:21.000Z,990.1
2022-09-27T11:48:37.000Z,990.1
2022-09-27T11:49:53.000Z,990.1
2022-09-27T11:51:10.000Z,990.1
2022-09-27T11:52:25.000Z,990.1
2022-09-27T11:54:57.000Z,990.1
2022-09-27T11:56:13.000Z,990.1
2022-09-27T11:57:30.000Z,990.1
2022-09-27T11:58:46.000Z,990
2022-09-27T12:00:02.000Z,990
2022-09-27T12:01:18.000Z,990
2022-09-27T12:02:35.000Z,990
2022-09-27T12:03:51.000Z,990
2022-09-27T12:05:07.000Z,990
2022-09-27T12:07:40.000Z,989.9
2022-09-27T12:08:55.000Z,990
2022-09-27T12:10:11.000Z,990
2022-09-27T12:12:44.000Z,990
2022-09-27T12:14:00.000Z,990
2022-09-27T12:15:16.000Z,989.9
2022-09-27T12:17:48.000Z,990
2022-09-27T12:19:05.000Z,990
2022-09-27T12:21:37.000Z,990
2022-09-27T12:22:53.000Z,990
2022-09-27T12:24:10.000Z,990.1
2022-09-27T12:25:25.000Z,990.1
2022-09-27T12:26:41.000Z,990.1
2022-09-27T12:27:57.000Z,990.1
2022-09-27T12:30:30.000Z,990.1
2022-09-27T12:31:46.000Z,990.1
2022-09-27T12:33:02.000Z,990.1
2022-09-27T12:34:18.000Z,990.1
2022-09-27T12:35:35.000Z,990.1
2022-09-27T12:36:51.000Z,990.1
2022-09-27T12:38:07.000Z,990.1
2022-09-27T12:39:23.000Z,990.2
2022-09-27T12:40:40.000Z,990.1
2022-09-27T12:41:55.000Z,990.1
2022-09-27T12:43:11.000Z,990.2
2022-09-27T12:45:44.000Z,990.1
2022-09-27T12:47:00.000Z,990.1
2022-09-27T12:48:16.000Z,990.1
2022-09-27T12:49:32.000Z,990.1
2022-09-27T12:50:49.000Z,990
2022-09-27T12:52:05.000Z,990
2022-09-27T12:53:21.000Z,990.1
2022-09-27T12:54:37.000Z,990.1
2022-09-27T12:58:26.000Z,990.1
2022-09-27T13:00:57.000Z,990.1
2022-09-27T13:02:14.000Z,990
2022-09-27T13:03:30.000Z,990
2022-09-27T13:04:46.000Z,990
2022-09-27T13:06:02.000Z,990.1
2022-09-27T13:07:19.000Z,989.9
2022-09-27T13:08:35.000Z,989.9
2022-09-27T13:09:51.000Z,989.9
2022-09-27T13:11:07.000Z,989.9
2022-09-27T13:12:24.000Z,990
2022-09-27T13:13:40.000Z,990
2022-09-27T13:14:56.000Z,990
2022-09-27T13:16:11.000Z,990
2022-09-27T13:17:27.000Z,990
2022-09-27T13:18:44.000Z,990.1
2022-09-27T13:20:00.000Z,990
2022-09-27T13:21:16.000Z,990
2022-09-27T13:22:32.000Z,990
2022-09-27T13:23:49.000Z,990.1
2022-09-27T13:25:04.000Z,990
2022-09-27T13:26:19.000Z,990
2022-09-27T13:27:35.000Z,990.1
2022-09-27T13:28:52.000Z,990
2022-09-27T13:30:08.000Z,989.9
2022-09-27T13:31:24.000Z,990
2022-09-27T13:32:40.000Z,990
2022-09-27T13:33:57.000Z,990.1
2022-09-27T13:36:29.000Z,990.1
2022-09-27T13:37:45.000Z,990.1
2022-09-27T13:40:18.000Z,990.1
2022-09-27T13:42:49.000Z,990.1
2022-09-27T13:44:04.000Z,990.1
2022-09-27T13:46:36.000Z,990.1
2022-09-27T13:47:52.000Z,990.2
2022-09-27T13:49:08.000Z,990.1
2022-09-27T13:50:25.000Z,990.1
2022-09-27T13:51:41.000Z,990.2
2022-09-27T13:52:57.000Z,990.1
2022-09-27T13:54:13.000Z,990.1
2022-09-27T13:55:30.000Z,990.1
2022-09-27T13:56:45.000Z,990.1
2022-09-27T13:58:01.000Z,990.1
2022-09-27T13:59:16.000Z,990.1
2022-09-27T14:01:48.000Z,990
2022-09-27T14:03:04.000Z,990.1
2022-09-27T14:05:37.000Z,990.1
2022-09-27T14:06:53.000Z,990.2
2022-09-27T14:08:09.000Z,990.1
2022-09-27T14:09:25.000Z,990.2
2022-09-27T14:10:41.000Z,990.2
2022-09-27T14:11:58.000Z,990.2
2022-09-27T14:14:30.000Z,990.3
2022-09-27T14:15:46.000Z,990.3
2022-09-27T14:17:02.000Z,990.3
2022-09-27T14:18:17.000Z,990.2
2022-09-27T14:19:33.000Z,990.3
2022-09-27T14:20:49.000Z,990.2
2022-09-27T14:23:22.000Z,990.2
2022-09-27T14:24:38.000Z,990.3
2022-09-27T14:25:54.000Z,990.2
2022-09-27T14:27:11.000Z,990.3
2022-09-27T14:28:27.000Z,990.2
2022-09-27T14:29:43.000Z,990.2
2022-09-27T14:30:59.000Z,990.2
2022-09-27T14:32:15.000Z,990.2
2022-09-27T14:33:32.000Z,990.2
2022-09-27T14:34:47.000Z,990.2
2022-09-27T14:36:03.000Z,990.2
2022-09-27T14:37:19.000Z,990.2
2022-09-27T14:39:52.000Z,990.3
2022-09-27T14:41:08.000Z,990.3
2022-09-27T14:42:24.000Z,990.3
2022-09-27T14:43:41.000Z,990.3
2022-09-27T14:44:57.000Z,990.3
2022-09-27T14:46:13.000Z,990.3
2022-09-27T14:47:29.000Z,990.3
2022-09-27T14:50:02.000Z,990.4
2022-09-27T14:51:17.000Z,990.4
2022-09-27T14:52:33.000Z,990.4
2022-09-27T14:53:49.000Z,990.5
2022-09-27T14:55:06.000Z,990.4
2022-09-27T14:56:22.000Z,990.5
2022-09-27T14:57:38.000Z,990.5
2022-09-27T14:58:54.000Z,990.5
2022-09-27T15:00:11.000Z,990.5
2022-09-27T15:01:27.000Z,990.5
2022-09-27T15:02:43.000Z,990.5
2022-09-27T15:05:16.000Z,990.5
2022-09-27T15:06:32.000Z,990.5
2022-09-27T15:09:03.000Z,990.5
2022-09-27T15:11:36.000Z,990.5
2022-09-27T15:12:52.000Z,990.5
2022-09-27T15:14:08.000Z,990.5
2022-09-27T15:15:24.000Z,990.5
2022-09-27T15:16:41.000Z,990.5
2022-09-27T15:17:57.000Z,990.5
2022-09-27T15:20:29.000Z,990.5
2022-09-27T15:21:46.000Z,990.5
2022-09-27T15:23:02.000Z,990.5
2022-09-27T15:24:17.000Z,990.5
2022-09-27T15:25:33.000Z,990.5
2022-09-27T15:26:50.000Z,990.5
2022-09-27T15:30:38.000Z,990.5
2022-09-27T15:31:54.000Z,990.5
2022-09-27T15:34:27.000Z,990.6
2022-09-27T15:35:43.000Z,990.6
2022-09-27T15:36:59.000Z,990.5
2022-09-27T15:38:16.000Z,990.5
2022-09-27T15:39:32.000Z,990.5
2022-09-27T15:40:47.000Z,990.5
2022-09-27T15:42:03.000Z,990.5
2022-09-27T15:43:20.000Z,990.5
2022-09-27T15:44:36.000Z,990.5
2022-09-27T15:47:08.000Z,990.6
2022-09-27T15:48:25.000Z,990.6
2022-09-27T15:49:41.000Z,990.6
2022-09-27T15:50:57.000Z,990.6
2022-09-27T15:52:13.000Z,990.6
2022-09-27T15:53:29.000Z,990.6
2022-09-27T15:56:02.000Z,990.6
2022-09-27T15:57:17.000Z,990.6
2022-09-27T15:58:33.000Z,990.6
2022-09-27T15:59:50.000Z,990.6
2022-09-27T16:01:06.000Z,990.6
2022-09-27T16:02:22.000Z,990.6
2022-09-27T16:03:38.000Z,990.6
2022-09-27T16:04:55.000Z,990.6
2022-09-27T16:06:11.000Z,990.6
2022-09-27T16:07:27.000Z,990.6
2022-09-27T16:08:43.000Z,990.6
2022-09-27T16:10:00.000Z,990.6
2022-09-27T16:11:16.000Z,990.5
2022-09-27T16:12:32.000Z,990.5
2022-09-27T16:13:47.000Z,990.6
2022-09-27T16:15:02.000Z,990.5
2022-09-27T16:17:35.000Z,990.5
2022-09-27T16:18:51.000Z,990.5
2022-09-27T16:20:07.000Z,990.5
2022-09-27T16:21:24.000Z,990.6
2022-09-27T16:22:40.000Z,990.6
2022-09-27T16:23:56.000Z,990.6
2022-09-27T16:26:29.000Z,990.6
2022-09-27T16:27:45.000Z,990.6
2022-09-27T16:30:17.000Z,990.7
2022-09-27T16:31:33.000Z,990.7
2022-09-27T16:32:48.000Z,990.7
2022-09-27T16:34:04.000Z,990.7
2022-09-27T16:35:20.000Z,990.7
2022-09-27T16:36:36.000Z,990.7
2022-09-27T16:37:53.000Z,990.7
2022-09-27T16:40:25.000Z,990.7
2022-09-27T16:41:41.000Z,990.7
2022-09-27T16:42:58.000Z,990.7
2022-09-27T16:44:14.000Z,990.7
2022-09-27T16:45:30.000Z,990.7
2022-09-27T16:46:46.000Z,990.7
2022-09-27T16:48:03.000Z,990.7
2022-09-27T16:49:18.000Z,990.8
2022-09-27T16:50:34.000Z,990.8
2022-09-27T16:51:50.000Z,990.8
2022-09-27T16:53:07.000Z,990.7
2022-09-27T16:54:23.000Z,990.7
2022-09-27T16:55:39.000Z,990.8
2022-09-27T16:56:55.000Z,990.8
2022-09-27T16:59:28.000Z,990.8
2022-09-27T17:00:44.000Z,990.8
2022-09-27T17:02:00.000Z,990.8
2022-09-27T17:03:16.000Z,990.8
2022-09-27T17:04:33.000Z,990.8
2022-09-27T17:07:05.000Z,990.8
2022-09-27T17:08:20.000Z,990.8
2022-09-27T17:09:37.000Z,990.8
2022-09-27T17:12:09.000Z,990.8
2022-09-27T17:13:25.000Z,990.8
2022-09-27T17:14:42.000Z,990.8
2022-09-27T17:15:58.000Z,990.8
2022-09-27T17:17:14.000Z,990.7
2022-09-27T17:18:30.000Z,990.8
2022-09-27T17:19:46.000Z,990.8
2022-09-27T17:21:03.000Z,990.8
2022-09-27T17:22:19.000Z,990.8
2022-09-27T17:23:35.000Z,990.7
2022-09-27T17:24:50.000Z,990.8
2022-09-27T17:26:07.000Z,990.7
2022-09-27T17:27:23.000Z,990.8
2022-09-27T17:29:55.000Z,990.8
2022-09-27T17:31:12.000Z,990.7
2022-09-27T17:32:28.000Z,990.8
2022-09-27T17:33:44.000Z,990.7
2022-09-27T17:35:00.000Z,990.7
2022-09-27T17:37:33.000Z,990.7
2022-09-27T17:38:49.000Z,990.7
2022-09-27T17:40:05.000Z,990.8
2022-09-27T17:41:21.000Z,990.7
2022-09-27T17:42:37.000Z,990.8
2022-09-27T17:43:53.000Z,990.8
2022-09-27T17:45:09.000Z,990.7
2022-09-27T17:46:25.000Z,990.7
2022-09-27T17:48:58.000Z,990.7
2022-09-27T17:50:14.000Z,990.7
2022-09-27T17:51:31.000Z,990.7
2022-09-27T17:52:47.000Z,990.7
2022-09-27T17:54:03.000Z,990.7
2022-09-27T17:55:19.000Z,990.7
2022-09-27T17:56:36.000Z,990.7
2022-09-27T17:57:52.000Z,990.7
2022-09-27T17:59:08.000Z,990.7
2022-09-27T18:00:24.000Z,990.7
2022-09-27T18:02:56.000Z,990.6
2022-09-27T18:04:12.000Z,990.6
2022-09-27T18:06:45.000Z,990.6
2022-09-27T18:09:18.000Z,990.6
2022-09-27T18:10:34.000Z,990.6
2022-09-27T18:11:50.000Z,990.6
2022-09-27T18:13:06.000Z,990.6
2022-09-27T18:15:38.000Z,990.6
2022-09-27T18:16:54.000Z,990.6
2022-09-27T18:18:11.000Z,990.6
2022-09-27T18:19:27.000Z,990.6
2022-09-27T18:20:43.000Z,990.6
2022-09-27T18:22:00.000Z,990.5
2022-09-27T18:24:32.000Z,990.5
2022-09-27T18:28:21.000Z,990.5
2022-09-27T18:29:37.000Z,990.5
2022-09-27T18:30:53.000Z,990.5
2022-09-27T18:32:09.000Z,990.5
2022-09-27T18:33:25.000Z,990.5
2022-09-27T18:34:41.000Z,990.5
2022-09-27T18:35:58.000Z,990.5
2022-09-27T18:37:14.000Z,990.5
2022-09-27T18:38:30.000Z,990.5
2022-09-27T18:39:47.000Z,990.5
2022-09-27T18:43:35.000Z,990.5
2022-09-27T18:44:52.000Z,990.5
2022-09-27T18:46:08.000Z,990.5
2022-09-27T18:47:24.000Z,990.5
2022-09-27T18:48:40.000Z,990.5
2022-09-27T18:49:56.000Z,990.4
2022-09-27T18:51:12.000Z,990.4
2022-09-27T18:53:45.000Z,990.4
2022-09-27T18:55:01.000Z,990.4
2022-09-27T18:56:17.000Z,990.4